createdAt,value
2022-09-17T00:01:40.439Z,25.90
2022-09-17T00:04:08.863Z,25.90
2022-09-17T00:06:39.407Z,25.80
2022-09-17T00:09:08.817Z,25.80
2022-09-17T00:11:39.518Z,25.80
2022-09-17T00:14:09.496Z,25.80
2022-09-17T00:16:40.347Z,25.80
2022-09-17T00:19:13.908Z,25.80
2022-09-17T00:21:44.361Z,25.80
2022-09-17T00:24:14.140Z,25.80
2022-09-17T00:26:43.188Z,25.80
2022-09-17T00:29:12.158Z,25.80
2022-09-17T00:31:40.658Z,25.70
2022-09-17T00:34:09.336Z,25.70
2022-09-17T00:36:38.930Z,25.70
2022-09-17T00:39:11.088Z,25.70
2022-09-17T00:41:40.419Z,25.70
2022-09-17T00:44:44.739Z,25.60
2022-09-17T00:47:18.990Z,25.60
2022-09-17T00:49:48.725Z,25.60
2022-09-17T00:52:20.414Z,25.50
2022-09-17T00:54:56.074Z,25.50
2022-09-17T00:57:24.679Z,25.50
2022-09-17T00:59:53.454Z,25.50
2022-09-17T01:02:22.428Z,25.50
2022-09-17T01:04:51.464Z,25.50
2022-09-17T01:07:40.330Z,25.50
2022-09-17T01:10:24.226Z,25.50
2022-09-17T01:13:04.784Z,25.50
2022-09-17T01:15:41.861Z,25.50
2022-09-17T01:18:33.504Z,25.50
2022-09-17T01:21:30.535Z,25.40
2022-09-17T01:24:30.835Z,25.40
2022-09-17T01:27:32.221Z,25.40
2022-09-17T01:30:28.248Z,25.40
2022-09-17T01:33:03.253Z,25.40
2022-09-17T01:35:38.295Z,25.40
2022-09-17T01:38:12.165Z,25.40
2022-09-17T01:40:46.797Z,25.50
2022-09-17T01:43:23.233Z,25.40
2022-09-17T01:45:53.643Z,25.40
2022-09-17T01:48:28.362Z,25.40
2022-09-17T01:51:01.300Z,25.40
2022-09-17T01:53:36.818Z,25.40
2022-09-17T01:56:07.452Z,25.40
2022-09-17T01:58:41.505Z,25.40
2022-09-17T02:01:12.875Z,25.40
2022-09-17T02:03:47.399Z,25.30
2022-09-17T02:06:18.950Z,25.40
2022-09-17T02:08:49.815Z,25.40
2022-09-17T02:11:18.296Z,25.30
2022-09-17T02:13:51.621Z,25.30
2022-09-17T02:16:25.190Z,25.30
2022-09-17T02:18:59.693Z,25.30
2022-09-17T02:21:34.442Z,25.30
2022-09-17T02:24:09.607Z,25.30
2022-09-17T02:26:44.741Z,25.30
2022-09-17T02:29:21.019Z,25.30
2022-09-17T02:31:49.670Z,25.30
2022-09-17T02:34:20.360Z,25.30
2022-09-17T02:36:48.722Z,25.20
2022-09-17T02:39:17.680Z,25.30
2022-09-17T02:41:53.298Z,25.30
2022-09-17T02:44:31.013Z,25.20
2022-09-17T02:47:15.973Z,25.20
2022-09-17T02:50:00.509Z,25.20
2022-09-17T02:52:41.074Z,25.20
2022-09-17T02:55:18.621Z,25.20
2022-09-17T02:57:53.586Z,25.30
2022-09-17T03:00:24.331Z,25.20
2022-09-17T03:02:57.695Z,25.20
2022-09-17T03:05:29.104Z,25.10
2022-09-17T03:07:57.683Z,25.10
2022-09-17T03:10:28.388Z,25.10
2022-09-17T03:12:56.844Z,25.10
2022-09-17T03:15:25.225Z,25.10
2022-09-17T03:17:53.746Z,25.10
2022-09-17T03:20:22.192Z,25.10
2022-09-17T03:22:53.598Z,25.10
2022-09-17T03:25:22.036Z,25.10
2022-09-17T03:27:50.294Z,25.10
2022-09-17T03:30:18.913Z,25.10
2022-09-17T03:32:47.756Z,25.10
2022-09-17T03:35:16.163Z,25.10
2022-09-17T03:37:44.519Z,25.10
2022-09-17T03:40:14.376Z,25.00
2022-09-17T03:42:42.742Z,25.00
2022-09-17T03:45:11.696Z,25.00
2022-09-17T03:47:39.996Z,25.00
2022-09-17T03:50:09.608Z,25.00
2022-09-17T03:52:37.950Z,25.00
2022-09-17T03:55:07.805Z,25.00
2022-09-17T03:57:37.563Z,25.00
2022-09-17T04:00:08.688Z,25.00
2022-09-17T04:02:37.160Z,25.00
2022-09-17T04:05:06.599Z,25.00
2022-09-17T04:07:34.886Z,25.00
2022-09-17T04:10:05.113Z,25.00
2022-09-17T04:12:33.714Z,24.90
2022-09-17T04:15:03.693Z,24.90
2022-09-17T04:17:32.402Z,24.90
2022-09-17T04:20:00.973Z,24.90
2022-09-17T04:22:29.537Z,24.90
2022-09-17T04:24:58.139Z,24.80
2022-09-17T04:27:26.829Z,24.90
2022-09-17T04:29:55.373Z,24.90
2022-09-17T04:32:25.502Z,24.90
2022-09-17T04:34:54.111Z,24.90
2022-09-17T04:37:23.113Z,24.80
2022-09-17T04:39:51.846Z,24.80
2022-09-17T04:42:20.196Z,24.80
2022-09-17T04:44:48.468Z,24.90
2022-09-17T04:47:16.918Z,24.80
2022-09-17T04:49:46.872Z,24.80
2022-09-17T04:52:15.410Z,24.80
2022-09-17T04:54:43.679Z,24.80
2022-09-17T04:57:12.078Z,24.80
2022-09-17T04:59:40.531Z,24.80
2022-09-17T05:02:08.955Z,24.80
2022-09-17T05:04:37.332Z,24.80
2022-09-17T05:07:09.884Z,24.70
2022-09-17T05:09:40.391Z,24.80
2022-09-17T05:12:09.448Z,24.80
2022-09-17T05:14:37.825Z,24.70
2022-09-17T05:17:06.244Z,24.80
2022-09-17T05:19:34.538Z,24.70
2022-09-17T05:22:03.054Z,24.80
2022-09-17T05:24:33.855Z,24.80
2022-09-17T05:27:02.213Z,24.70
2022-09-17T05:29:30.730Z,24.70
2022-09-17T05:31:59.218Z,24.70
2022-09-17T05:34:27.560Z,24.70
2022-09-17T05:36:55.896Z,24.70
2022-09-17T05:39:25.644Z,24.70
2022-09-17T05:41:55.977Z,24.70
2022-09-17T05:44:26.044Z,24.60
2022-09-17T05:46:55.410Z,24.60
2022-09-17T05:49:23.937Z,24.60
2022-09-17T05:51:52.773Z,24.60
2022-09-17T05:54:21.777Z,24.50
2022-09-17T05:56:50.296Z,24.50
2022-09-17T05:59:20.371Z,24.50
2022-09-17T06:01:49.919Z,24.50
2022-09-17T06:04:19.759Z,24.50
2022-09-17T06:06:48.338Z,24.50
2022-09-17T06:09:17.083Z,24.50
2022-09-17T06:11:45.776Z,24.40
2022-09-17T06:14:14.537Z,24.50
2022-09-17T06:16:44.838Z,24.40
2022-09-17T06:19:13.429Z,24.40
2022-09-17T06:21:41.789Z,24.40
2022-09-17T06:24:11.619Z,24.40
2022-09-17T06:26:40.015Z,24.40
2022-09-17T06:29:08.374Z,24.40
2022-09-17T06:31:36.750Z,24.40
2022-09-17T06:34:06.797Z,24.40
2022-09-17T06:36:35.074Z,24.40
2022-09-17T06:39:03.460Z,24.40
2022-09-17T06:41:31.831Z,24.40
2022-09-17T06:44:01.534Z,24.40
2022-09-17T06:46:29.819Z,24.40
2022-09-17T06:48:58.227Z,24.40
2022-09-17T06:51:28.254Z,24.40
2022-09-17T06:53:56.631Z,24.40
2022-09-17T06:56:25.779Z,24.40
2022-09-17T06:58:55.288Z,24.40
2022-09-17T07:01:23.717Z,24.40
2022-09-17T07:03:52.463Z,24.50
2022-09-17T07:06:20.845Z,24.40
2022-09-17T07:08:50.863Z,24.50
2022-09-17T07:11:19.363Z,24.40
2022-09-17T07:13:47.733Z,24.50
2022-09-17T07:16:16.116Z,24.50
2022-09-17T07:18:44.639Z,24.50
2022-09-17T07:21:13.009Z,24.50
2022-09-17T07:23:41.310Z,24.50
2022-09-17T07:26:15.637Z,24.50
2022-09-17T07:28:44.958Z,24.50
2022-09-17T07:31:16.639Z,24.50
2022-09-17T07:33:46.075Z,24.50
2022-09-17T07:36:18.014Z,24.60
2022-09-17T07:38:47.273Z,24.50
2022-09-17T07:41:18.576Z,24.50
2022-09-17T07:43:47.317Z,24.50
2022-09-17T07:46:17.377Z,24.50
2022-09-17T07:48:46.497Z,24.50
2022-09-17T07:51:17.860Z,24.50
2022-09-17T07:53:46.806Z,24.40
2022-09-17T07:56:17.001Z,24.40
2022-09-17T07:58:45.446Z,24.30
2022-09-17T08:01:15.474Z,24.30
2022-09-17T08:03:45.025Z,24.20
2022-09-17T08:06:15.590Z,24.10
2022-09-17T08:08:44.261Z,24.00
2022-09-17T08:11:14.455Z,24.00
2022-09-17T08:13:45.244Z,23.90
2022-09-17T08:16:14.635Z,23.80
2022-09-17T08:18:44.126Z,23.80
2022-09-17T08:21:13.888Z,23.70
2022-09-17T08:23:43.520Z,23.70
2022-09-17T08:26:15.791Z,23.60
2022-09-17T08:28:49.404Z,23.50
2022-09-17T08:31:19.310Z,23.40
2022-09-17T08:33:48.604Z,23.40
2022-09-17T08:36:18.849Z,23.40
2022-09-17T08:38:48.613Z,23.30
2022-09-17T08:41:24.678Z,23.30
2022-09-17T08:44:06.561Z,23.20
2022-09-17T08:46:39.163Z,23.20
2022-09-17T08:49:17.695Z,23.10
2022-09-17T08:51:58.642Z,23.10
2022-09-17T08:54:35.112Z,23.00
2022-09-17T08:57:18.513Z,23.00
2022-09-17T08:59:54.963Z,23.00
2022-09-17T09:02:39.358Z,22.90
2022-09-17T09:05:15.626Z,22.90
2022-09-17T09:07:48.628Z,22.90
2022-09-17T09:10:22.491Z,22.90
2022-09-17T09:12:52.887Z,22.80
2022-09-17T09:15:38.335Z,22.80
2022-09-17T09:18:18.129Z,22.70
2022-09-17T09:29:06.038Z,22.60
2022-09-17T09:31:54.918Z,22.60
2022-09-17T09:34:24.184Z,22.60
2022-09-17T09:36:53.440Z,22.60
2022-09-17T09:39:25.459Z,22.60
2022-09-17T09:42:00.129Z,22.60
2022-09-17T09:44:29.928Z,22.60
2022-09-17T09:47:31.100Z,22.70
2022-09-17T09:50:34.531Z,22.80
2022-09-17T09:53:22.125Z,22.70
2022-09-17T09:56:03.320Z,22.70
2022-09-17T09:58:36.299Z,22.70
2022-09-17T10:01:15.074Z,22.80
2022-09-17T10:03:46.305Z,22.80
2022-09-17T10:06:16.172Z,22.70
2022-09-17T10:09:12.040Z,22.70
2022-09-17T10:11:40.904Z,22.70
2022-09-17T10:14:17.553Z,22.70
2022-09-17T10:16:47.519Z,22.60
2022-09-17T10:19:25.134Z,22.70
2022-09-17T10:22:33.429Z,22.60
2022-09-17T10:25:03.686Z,22.60
2022-09-17T10:27:32.793Z,22.50
2022-09-17T10:30:15.365Z,22.50
2022-09-17T10:39:45.200Z,22.40
2022-09-17T10:42:16.521Z,22.40
2022-09-17T10:44:53.135Z,22.40
2022-09-17T10:47:26.550Z,22.30
2022-09-17T10:50:00.193Z,22.30
2022-09-17T10:52:32.457Z,22.30
2022-09-17T10:55:27.902Z,22.20
2022-09-17T10:58:06.029Z,22.10
2022-09-17T11:00:46.741Z,22.10
2022-09-17T11:03:36.422Z,22.00
2022-09-17T11:06:52.994Z,21.90
2022-09-17T11:09:33.950Z,21.90
2022-09-17T11:12:22.417Z,21.90
2022-09-17T11:14:55.685Z,21.80
2022-09-17T11:17:58.609Z,21.90
2022-09-17T11:20:40.443Z,21.80
2022-09-17T11:23:25.820Z,21.90
2022-09-17T11:26:00.915Z,21.90
2022-09-17T11:28:48.582Z,22.00
2022-09-17T11:31:28.123Z,22.20
2022-09-17T11:34:22.537Z,22.30
2022-09-17T11:36:58.828Z,22.40
2022-09-17T11:39:44.019Z,22.40
2022-09-17T11:42:23.065Z,22.40
2022-09-17T11:44:55.961Z,22.40
2022-09-17T11:47:29.837Z,22.30
2022-09-17T11:50:02.334Z,22.30
2022-09-17T11:52:36.618Z,22.30
2022-09-17T11:55:21.800Z,22.40
2022-09-17T11:57:54.376Z,22.80
2022-09-17T12:00:24.180Z,23.20
2022-09-17T12:02:57.543Z,23.30
2022-09-17T12:05:30.177Z,23.40
2022-09-17T12:08:05.987Z,23.70
2022-09-17T12:10:40.072Z,23.80
2022-09-17T12:13:20.007Z,24.10
2022-09-17T12:15:53.429Z,24.60
2022-09-17T12:18:35.726Z,24.60
2022-09-17T12:21:06.477Z,24.50
2022-09-17T12:23:39.937Z,24.40
2022-09-17T12:29:28.256Z,24.60
2022-09-17T12:32:22.496Z,24.60
2022-09-17T12:35:22.173Z,24.60
2022-09-17T12:38:01.432Z,24.70
2022-09-17T12:40:36.648Z,25.40
2022-09-17T12:43:21.216Z,26.00
2022-09-17T12:46:07.290Z,26.50
2022-09-17T12:49:10.947Z,27.10
2022-09-17T12:51:56.191Z,27.50
2022-09-17T12:54:57.970Z,28.00
2022-09-17T12:57:37.421Z,28.40
2022-09-17T13:00:11.385Z,28.60
2022-09-17T13:02:47.694Z,29.00
2022-09-17T13:05:42.302Z,29.30
2022-09-17T13:08:27.527Z,29.50
2022-09-17T13:11:18.134Z,29.80
2022-09-17T13:13:54.133Z,29.90
2022-09-17T13:16:27.187Z,30.00
2022-09-17T13:19:15.987Z,30.00
2022-09-17T13:21:54.692Z,30.00
2022-09-17T13:24:25.786Z,30.00
2022-09-17T13:26:55.763Z,30.10
2022-09-17T13:30:04.503Z,30.20
2022-09-17T13:32:46.987Z,30.10
2022-09-17T13:35:58.530Z,30.40
2022-09-17T13:38:44.411Z,30.50
2022-09-17T13:41:25.361Z,30.70
2022-09-17T13:44:14.184Z,31.00
2022-09-17T13:46:45.325Z,31.10
2022-09-17T13:49:17.139Z,31.10
2022-09-17T13:51:57.960Z,31.30
2022-09-17T13:54:39.155Z,31.50
2022-09-17T13:57:16.188Z,31.70
2022-09-17T13:59:56.552Z,31.90
2022-09-17T14:02:39.893Z,32.10
2022-09-17T14:05:41.380Z,32.20
2022-09-17T14:08:31.321Z,32.40
2022-09-17T14:11:05.998Z,32.50
2022-09-17T14:13:44.872Z,32.70
2022-09-17T14:16:47.203Z,32.80
2022-09-17T14:19:38.103Z,33.00
2022-09-17T14:22:17.434Z,33.00
2022-09-17T14:24:53.016Z,33.10
2022-09-17T14:27:56.120Z,33.10
2022-09-17T14:30:27.635Z,33.20
2022-09-17T14:33:06.759Z,33.20
2022-09-17T14:35:37.994Z,33.20
2022-09-17T14:38:14.061Z,33.20
2022-09-17T14:40:47.404Z,33.30
2022-09-17T14:43:22.876Z,33.30
2022-09-17T14:45:54.381Z,33.30
2022-09-17T14:48:30.064Z,33.20
2022-09-17T14:51:24.893Z,33.20
2022-09-17T14:54:12.411Z,33.10
2022-09-17T14:56:57.642Z,33.00
2022-09-17T14:59:39.758Z,32.90
2022-09-17T15:02:29.559Z,32.80
2022-09-17T15:05:02.495Z,32.70
2022-09-17T15:07:31.697Z,32.50
2022-09-17T15:10:14.739Z,32.20
2022-09-17T15:12:45.893Z,32.00
2022-09-17T15:15:20.586Z,31.70
2022-09-17T15:17:50.198Z,31.50
2022-09-17T15:20:21.982Z,31.30
2022-09-17T15:22:57.014Z,31.10
2022-09-17T15:25:27.122Z,31.10
2022-09-17T15:27:59.866Z,31.10
2022-09-17T15:30:29.153Z,31.10
2022-09-17T15:33:00.068Z,31.10
2022-09-17T15:35:30.627Z,31.20
2022-09-17T15:40:51.164Z,31.10
2022-09-17T15:43:27.055Z,31.10
2022-09-17T15:45:55.692Z,31.00
2022-09-17T15:48:36.271Z,31.00
2022-09-17T15:51:07.341Z,30.90
2022-09-17T15:53:36.737Z,30.80
2022-09-17T15:56:07.868Z,30.70
2022-09-17T15:58:54.906Z,30.60
2022-09-17T16:01:53.008Z,30.40
2022-09-17T16:04:24.445Z,30.20
2022-09-17T16:07:18.135Z,29.90
2022-09-17T16:09:50.046Z,29.70
2022-09-17T16:12:22.471Z,29.50
2022-09-17T16:14:54.327Z,29.30
2022-09-17T16:17:29.419Z,29.10
2022-09-17T16:20:02.506Z,29.00
2022-09-17T16:22:33.776Z,28.80
2022-09-17T16:25:02.947Z,28.70
2022-09-17T16:27:36.473Z,28.60
2022-09-17T16:30:10.315Z,28.40
2022-09-17T16:32:39.596Z,28.30
2022-09-17T16:35:09.018Z,28.20
2022-09-17T16:37:37.409Z,28.10
2022-09-17T16:40:07.262Z,28.00
2022-09-17T16:42:35.784Z,27.90
2022-09-17T16:45:06.851Z,27.80
2022-09-17T16:47:51.966Z,27.70
2022-09-17T16:50:20.698Z,27.60
2022-09-17T16:52:49.174Z,27.50
2022-09-17T16:55:19.034Z,27.40
2022-09-17T16:57:47.733Z,27.30
2022-09-17T17:00:20.066Z,27.20
2022-09-17T17:02:53.707Z,27.10
2022-09-17T17:05:22.255Z,26.90
2022-09-17T17:07:50.809Z,26.80
2022-09-17T17:10:20.384Z,26.80
2022-09-17T17:12:49.324Z,26.70
2022-09-17T17:15:19.351Z,26.60
2022-09-17T17:17:47.783Z,26.50
2022-09-17T17:20:17.056Z,26.40
2022-09-17T17:22:45.659Z,26.30
2022-09-17T17:25:15.523Z,26.20
2022-09-17T17:27:44.582Z,26.20
2022-09-17T17:30:17.648Z,26.10
2022-09-17T17:32:52.614Z,26.00
2022-09-17T17:35:21.473Z,26.00
2022-09-17T17:37:50.619Z,26.00
2022-09-17T17:40:19.193Z,25.90
2022-09-17T17:42:52.389Z,25.80
2022-09-17T17:45:20.830Z,25.80
2022-09-17T17:47:50.582Z,25.70
2022-09-17T17:50:19.759Z,25.60
2022-09-17T17:52:49.180Z,25.50
2022-09-17T17:55:18.163Z,25.50
2022-09-17T17:57:46.462Z,25.40
2022-09-17T18:00:16.937Z,25.30
2022-09-17T18:02:45.507Z,25.20
2022-09-17T18:05:15.395Z,25.20
2022-09-17T18:07:44.127Z,25.10
2022-09-17T18:10:13.178Z,25.00
2022-09-17T18:12:41.777Z,25.00
2022-09-17T18:15:10.758Z,24.90
2022-09-17T18:17:39.116Z,24.80
2022-09-17T18:20:09.748Z,24.70
2022-09-17T18:22:39.590Z,24.70
2022-09-17T18:25:08.720Z,24.70
2022-09-17T18:27:37.054Z,24.60
2022-09-17T18:30:06.288Z,24.50
2022-09-17T18:32:34.509Z,24.40
2022-09-17T18:35:02.818Z,24.40
2022-09-17T18:37:31.193Z,24.40
2022-09-17T18:40:01.190Z,24.40
2022-09-17T18:42:29.609Z,24.40
2022-09-17T18:44:57.897Z,24.30
2022-09-17T18:47:26.169Z,24.20
2022-09-17T18:49:54.441Z,24.20
2022-09-17T18:52:22.784Z,24.10
2022-09-17T18:54:51.034Z,24.20
2022-09-17T18:57:20.739Z,24.20
2022-09-17T18:59:49.073Z,24.20
2022-09-17T19:02:17.482Z,24.10
2022-09-17T19:04:45.973Z,24.10
2022-09-17T19:07:14.260Z,24.00
2022-09-17T19:09:42.597Z,23.90
2022-09-17T19:12:11.349Z,23.90
2022-09-17T19:14:41.056Z,23.80
2022-09-17T19:17:09.369Z,23.80
2022-09-17T19:19:37.851Z,23.70
2022-09-17T19:22:08.175Z,23.70
2022-09-17T19:24:36.607Z,23.60
2022-09-17T19:27:04.987Z,23.60
2022-09-17T19:29:33.315Z,23.50
2022-09-17T19:32:03.372Z,23.40
2022-09-17T19:34:31.689Z,23.30
2022-09-17T19:37:00.230Z,23.30
2022-09-17T19:39:28.548Z,23.30
2022-09-17T19:41:58.068Z,23.20
2022-09-17T19:44:26.428Z,23.10
2022-09-17T19:46:54.827Z,23.10
2022-09-17T19:49:24.698Z,23.00
2022-09-17T19:51:53.142Z,22.90
2022-09-17T19:54:21.493Z,22.90
2022-09-17T19:56:49.778Z,22.80
2022-09-17T19:59:18.078Z,22.80
2022-09-17T20:01:49.677Z,22.70
2022-09-17T20:04:18.695Z,22.70
2022-09-17T20:06:48.435Z,22.70
2022-09-17T20:09:16.762Z,22.60
2022-09-17T20:11:45.161Z,22.60
2022-09-17T20:14:13.802Z,22.60
2022-09-17T20:16:43.676Z,22.60
2022-09-17T20:19:16.021Z,22.60
2022-09-17T20:21:44.466Z,22.50
2022-09-17T20:24:14.817Z,22.50
2022-09-17T20:26:43.321Z,22.50
2022-09-17T20:29:12.007Z,22.50
2022-09-17T20:31:40.426Z,22.40
2022-09-17T20:34:08.779Z,22.40
2022-09-17T20:36:37.323Z,22.40
2022-09-17T20:39:21.014Z,22.30
2022-09-17T20:41:52.269Z,22.30
2022-09-17T20:44:20.830Z,22.30
2022-09-17T20:46:49.215Z,22.20
2022-09-17T20:49:17.511Z,22.20
2022-09-17T20:51:46.007Z,22.20
2022-09-17T20:54:14.612Z,22.10
2022-09-17T20:56:43.062Z,22.10
2022-09-17T20:59:18.006Z,22.10
2022-09-17T21:01:49.689Z,22.00
2022-09-17T21:04:20.156Z,22.00
2022-09-17T21:06:51.903Z,22.00
2022-09-17T21:09:20.210Z,21.90
2022-09-17T21:11:50.139Z,21.90
2022-09-17T21:14:20.724Z,21.90
2022-09-17T21:16:49.103Z,21.90
2022-09-17T21:19:17.771Z,21.80
2022-09-17T21:21:46.327Z,21.80
2022-09-17T21:24:14.640Z,21.80
2022-09-17T21:26:45.097Z,21.80
2022-09-17T21:29:13.411Z,21.70
2022-09-17T21:31:43.357Z,21.80
2022-09-17T21:34:14.223Z,21.80
2022-09-17T21:36:44.537Z,21.80
2022-09-17T21:39:14.902Z,21.80
2022-09-17T21:41:43.661Z,21.60
2022-09-17T21:44:13.100Z,21.60
2022-09-17T21:46:44.042Z,21.60
2022-09-17T21:49:13.499Z,21.50
2022-09-17T21:51:43.568Z,21.50
2022-09-17T21:54:13.689Z,21.50
2022-09-17T21:56:42.139Z,21.40
2022-09-17T21:59:13.004Z,21.40
2022-09-17T22:01:46.425Z,21.30
2022-09-17T22:04:18.121Z,21.30
2022-09-17T22:06:47.415Z,21.30
2022-09-17T22:09:18.834Z,21.20
2022-09-17T22:11:47.909Z,21.20
2022-09-17T22:14:19.506Z,21.10
2022-09-17T22:16:52.998Z,21.20
2022-09-17T22:19:22.494Z,21.10
2022-09-17T22:21:52.959Z,21.10
2022-09-17T22:24:22.462Z,21.10
2022-09-17T22:26:56.872Z,21.10
2022-09-17T22:29:25.876Z,21.00
2022-09-17T22:31:55.621Z,21.00
2022-09-17T22:34:25.963Z,21.00
2022-09-17T22:36:54.241Z,20.90
2022-09-17T22:39:23.128Z,20.90
2022-09-17T22:41:51.693Z,21.00
2022-09-17T22:44:21.540Z,20.90
2022-09-17T22:46:51.715Z,20.90
2022-09-17T22:49:21.727Z,20.80
2022-09-17T22:51:50.463Z,20.80
2022-09-17T22:54:19.593Z,20.80
2022-09-17T22:56:48.983Z,20.80
2022-09-17T22:59:19.065Z,20.70
2022-09-17T23:01:47.657Z,20.70
2022-09-17T23:04:16.303Z,20.70
2022-09-17T23:06:46.164Z,20.60
2022-09-17T23:09:15.309Z,20.60
2022-09-17T23:11:43.866Z,20.60
2022-09-17T23:14:14.287Z,20.60
2022-09-17T23:16:44.876Z,20.60
2022-09-17T23:19:13.927Z,20.50
2022-09-17T23:21:42.673Z,20.50
2022-09-17T23:24:17.697Z,20.50
2022-09-17T23:26:46.308Z,20.50
2022-09-17T23:29:15.383Z,20.40
2022-09-17T23:31:43.863Z,20.50
2022-09-17T23:34:12.155Z,20.40
2022-09-17T23:36:40.858Z,20.40
2022-09-17T23:39:12.665Z,20.30
2022-09-17T23:41:44.961Z,20.30
2022-09-17T23:44:16.275Z,20.30
2022-09-17T23:46:46.322Z,20.30
2022-09-17T23:49:16.344Z,20.20
2022-09-17T23:51:44.849Z,20.20
2022-09-17T23:54:14.663Z,20.20
2022-09-17T23:56:42.954Z,20.10
2022-09-17T23:59:12.266Z,20.20
